Time;durP1;ratioP1;P1;durP2;ratioP2;P2;SDS_P1;SDS_P2;PMS_P1;PMS_P2;Temp;Humidity;BMP_temperature;BMP_pressure;BME280_temperature;BME280_humidity;BME280_pressure;Samples;Min_cycle;Max_cycle;Signal;HPM_P1;HPM_P2
2023/08/16 00:02:18;;;;;;;12.70;11.40;;;;;;;25.68;63.14;101220.98;108526;1230;60416;-55
2023/08/16 00:04:45;;;;;;;11.70;10.60;;;;;;;25.66;63.25;101222.00;108431;1234;65022;-54
2023/08/16 00:07:12;;;;;;;12.50;10.90;;;;;;;25.62;63.40;101220.00;108737;1231;61577;-56
2023/08/16 00:09:39;;;;;;;18.50;12.10;;;;;;;25.57;63.47;101221.85;108489;1237;63658;-56
2023/08/16 00:12:07;;;;;;;13.30;10.70;;;;;;;25.57;63.59;101225.37;108661;1234;60474;-55
2023/08/16 00:14:33;;;;;;;13.70;11.50;;;;;;;25.55;63.62;101225.98;108975;1239;60372;-55
2023/08/16 00:17:00;;;;;;;15.70;11.60;;;;;;;25.52;63.67;101227.55;108434;1235;65106;-54
2023/08/16 00:19:27;;;;;;;14.60;12.00;;;;;;;25.48;63.57;101227.70;108413;1234;72044;-54
2023/08/16 00:21:54;;;;;;;12.70;11.40;;;;;;;25.40;63.64;101229.86;108383;1236;63747;-55
2023/08/16 00:24:21;;;;;;;13.50;12.20;;;;;;;25.34;63.68;101230.50;108514;1231;60444;-53
2023/08/16 00:26:48;;;;;;;12.80;11.50;;;;;;;25.31;63.59;101230.33;108372;1237;60541;-53
2023/08/16 00:29:14;;;;;;;12.70;11.40;;;;;;;25.32;63.40;101231.88;108540;1234;64952;-55
2023/08/16 00:31:41;;;;;;;14.80;11.50;;;;;;;25.31;63.44;101232.27;108521;1234;61607;-53
2023/08/16 00:34:09;;;;;;;13.90;11.70;;;;;;;25.29;63.41;101233.25;108527;1232;63996;-55
2023/08/16 00:36:36;;;;;;;12.70;11.40;;;;;;;25.26;63.29;101234.25;108430;1231;60299;-53
2023/08/16 00:39:03;;;;;;;13.00;11.70;;;;;;;25.22;63.20;101235.01;108365;1236;60598;-53
2023/08/16 00:41:30;;;;;;;12.60;11.30;;;;;;;25.18;63.15;101238.23;108628;1238;65635;-54
2023/08/16 00:43:57;;;;;;;12.70;11.40;;;;;;;25.17;62.97;101238.26;108370;1238;61723;-57
2023/08/16 00:46:23;;;;;;;13.70;11.20;;;;;;;25.17;63.00;101238.09;108591;1236;63703;-53
2023/08/16 00:48:51;;;;;;;12.30;11.10;;;;;;;25.17;63.07;101239.38;108622;1231;60295;-55
2023/08/16 00:51:18;;;;;;;12.70;11.40;;;;;;;25.15;63.12;101238.08;108409;1237;60468;-55
2023/08/16 00:53:45;;;;;;;14.00;12.60;;;;;;;25.12;63.14;101242.45;108507;1233;63728;-55
2023/08/16 00:56:15;;;;;;;15.30;13.50;;;;;;;25.08;63.06;101243.33;108622;1231;61605;-54
2023/08/16 00:58:42;;;;;;;15.50;13.90;;;;;;;25.02;62.92;101245.08;108386;1232;72142;-55
2023/08/16 01:01:10;;;;;;;13.90;12.40;;;;;;;25.01;62.80;101244.98;108430;1237;60477;-55
2023/08/16 01:03:36;;;;;;;12.90;11.40;;;;;;;25.00;62.94;101244.90;108590;1238;60541;-53
2023/08/16 01:06:04;;;;;;;14.60;12.80;;;;;;;25.00;62.94;101244.70;108544;1235;65448;-54
2023/08/16 01:08:32;;;;;;;14.10;12.90;;;;;;;24.98;63.08;101245.06;108652;1237;61657;-54
2023/08/16 01:11:27;;;;;;;14.30;12.90;;;;;;;24.94;63.23;101241.73;108304;1236;63969;-54
2023/08/16 01:14:11;;;;;;;13.20;11.90;;;;;;;24.87;63.37;101244.23;108331;1232;60548;-54
2023/08/16 01:16:39;;;;;;;13.20;11.90;;;;;;;24.83;63.58;101242.75;108190;1237;60563;-52
2023/08/16 01:19:10;;;;;;;12.20;11.00;;;;;;;24.81;63.62;101245.11;108402;1236;64791;-53
2023/08/16 01:21:52;;;;;;;12.10;10.90;;;;;;;24.80;63.72;101247.95;108550;1234;62007;-51
2023/08/16 01:24:22;;;;;;;12.50;11.30;;;;;;;24.80;63.68;101245.94;108463;1236;62414;-50
2023/08/16 01:26:49;;;;;;;14.50;13.10;;;;;;;24.80;63.83;101248.34;108642;1232;60609;-53
2023/08/16 01:29:16;;;;;;;15.40;13.90;;;;;;;24.80;63.82;101253.80;108569;1232;60458;-53
2023/08/16 01:31:44;;;;;;;15.60;14.10;;;;;;;24.80;63.69;101254.79;108391;1237;64892;-53
2023/08/16 01:34:11;;;;;;;14.40;12.90;;;;;;;24.81;63.65;101251.82;108151;1232;61555;-53
2023/08/16 01:36:39;;;;;;;14.00;12.60;;;;;;;24.84;63.63;101248.05;108586;1235;63960;-54
2023/08/16 01:39:07;;;;;;;14.60;13.20;;;;;;;24.85;63.55;101247.54;108527;1231;60434;-57
2023/08/16 01:41:40;;;;;;;15.40;13.80;;;;;;;24.83;63.63;101245.08;108458;1236;60420;-53
2023/08/16 01:44:07;;;;;;;15.30;13.70;;;;;;;24.80;63.63;101244.73;108288;1243;65449;-54
2023/08/16 01:46:34;;;;;;;15.60;13.90;;;;;;;24.78;63.63;101247.52;108688;1232;62104;-53
2023/08/16 01:49:02;;;;;;;14.30;12.90;;;;;;;24.76;63.54;101249.30;108554;1235;63689;-55
2023/08/16 01:51:28;;;;;;;15.20;12.50;;;;;;;24.73;63.54;101249.44;108412;1237;60504;-56
2023/08/16 01:53:55;;;;;;;15.30;11.30;;;;;;;24.75;63.53;101248.09;108419;1238;60535;-54
2023/08/16 01:56:22;;;;;;;13.20;10.60;;;;;;;24.78;63.44;101238.25;108423;1236;65111;-54
2023/08/16 01:58:49;;;;;;;13.30;11.90;;;;;;;24.79;63.47;101239.91;108009;1232;62041;-54
2023/08/16 02:01:16;;;;;;;14.70;12.20;;;;;;;24.75;63.44;101243.69;108290;1241;63706;-54
2023/08/16 02:03:43;;;;;;;15.20;11.20;;;;;;;24.69;63.49;101241.67;108207;1232;60343;-54
2023/08/16 02:06:10;;;;;;;14.60;10.80;;;;;;;24.62;63.81;101236.58;108588;1234;60426;-55
2023/08/16 02:08:38;;;;;;;13.40;11.60;;;;;;;24.60;63.89;101235.46;108343;1238;66244;-54
2023/08/16 02:11:05;;;;;;;11.90;10.00;;;;;;;24.60;63.87;101238.66;108492;1234;61291;-55
2023/08/16 02:13:32;;;;;;;12.40;11.20;;;;;;;24.61;63.88;101234.98;108254;1238;64433;-53
2023/08/16 02:16:02;;;;;;;12.50;10.70;;;;;;;24.59;63.75;101236.42;108434;1232;60495;-52
2023/08/16 02:18:30;;;;;;;13.20;11.90;;;;;;;24.54;63.67;101240.16;108246;1232;60509;-54
2023/08/16 02:20:57;;;;;;;13.30;11.50;;;;;;;24.45;63.65;101240.03;108367;1236;65187;-52
2023/08/16 02:23:23;;;;;;;13.10;11.70;;;;;;;24.36;63.74;101242.89;108607;1234;61343;-53
2023/08/16 02:25:50;;;;;;;13.20;11.90;;;;;;;24.35;63.77;101249.20;108615;1242;64029;-52
2023/08/16 02:28:18;;;;;;;13.70;12.10;;;;;;;24.35;63.83;101254.09;108563;1234;60976;-54
2023/08/16 02:30:45;;;;;;;12.70;11.50;;;;;;;24.33;63.69;101258.38;108937;1232;60532;-54
2023/08/16 02:33:12;;;;;;;12.90;11.70;;;;;;;24.32;63.74;101256.92;108595;1234;64889;-51
2023/08/16 02:35:39;;;;;;;14.50;11.80;;;;;;;24.29;63.80;101255.41;108383;1238;61444;-50
2023/08/16 02:38:05;;;;;;;12.90;11.70;;;;;;;24.28;63.81;101255.27;108699;1232;63973;-50
2023/08/16 02:40:32;;;;;;;15.30;12.50;;;;;;;24.26;63.80;101256.49;108119;1230;60483;-50
2023/08/16 02:42:59;;;;;;;15.90;12.90;;;;;;;24.22;63.66;101257.16;108482;1232;60419;-49
2023/08/16 02:45:26;;;;;;;13.00;11.70;;;;;;;24.19;63.69;101261.38;108543;1234;65076;-53
2023/08/16 02:47:53;;;;;;;13.60;12.10;;;;;;;24.16;63.75;101261.16;108492;1235;61614;-53
2023/08/16 02:50:23;;;;;;;13.00;11.60;;;;;;;24.14;63.92;101263.58;108535;1234;63763;-53
2023/08/16 02:52:49;;;;;;;15.10;12.30;;;;;;;24.12;64.08;101262.39;108415;1232;60445;-54
2023/08/16 02:55:16;;;;;;;13.70;12.30;;;;;;;24.11;64.30;101261.46;108137;1236;60884;-53
2023/08/16 02:57:42;;;;;;;14.40;13.00;;;;;;;24.10;64.37;101264.20;108556;1234;64898;-56
2023/08/16 03:00:10;;;;;;;13.00;11.50;;;;;;;24.10;64.27;101268.88;108464;1232;61641;-53
2023/08/16 03:02:37;;;;;;;15.20;11.60;;;;;;;24.11;64.31;101267.14;108404;1232;63602;-54
2023/08/16 03:05:06;;;;;;;13.70;12.30;;;;;;;24.14;64.24;101268.13;108570;1234;60474;-54
2023/08/16 03:07:32;;;;;;;13.80;12.40;;;;;;;24.17;64.17;101270.55;108537;1231;60535;-53
2023/08/16 03:10:00;;;;;;;14.60;13.20;;;;;;;24.19;64.06;101269.58;108990;1234;65624;-54
2023/08/16 03:12:28;;;;;;;14.40;13.00;;;;;;;24.19;63.98;101269.20;108447;1234;61501;-52
2023/08/16 03:14:56;;;;;;;15.70;13.10;;;;;;;24.15;64.02;101270.15;108546;1232;64008;-49
2023/08/16 03:17:24;;;;;;;15.50;12.20;;;;;;;24.09;64.24;101267.83;108455;1244;60578;-47
2023/08/16 03:19:51;;;;;;;14.10;12.70;;;;;;;24.09;64.32;101271.95;108405;1232;60591;-54
2023/08/16 03:22:18;;;;;;;14.40;12.90;;;;;;;24.11;64.40;101274.38;108301;1237;64895;-54
2023/08/16 03:24:46;;;;;;;13.20;11.90;;;;;;;24.14;64.45;101279.04;108398;1234;61540;-54
2023/08/16 03:27:13;;;;;;;13.10;11.80;;;;;;;24.17;64.43;101285.11;108315;1237;64596;-55
2023/08/16 03:29:40;;;;;;;14.10;12.70;;;;;;;24.19;64.46;101284.30;108450;1232;61735;-53
2023/08/16 03:32:07;;;;;;;14.70;13.10;;;;;;;24.19;64.32;101284.69;108512;1231;60438;-52
2023/08/16 03:34:34;;;;;;;14.00;12.60;;;;;;;24.15;64.30;101286.26;108427;1234;64954;-55
2023/08/16 03:37:01;;;;;;;14.50;12.90;;;;;;;24.14;64.33;101289.48;108218;1232;330299;-53
2023/08/16 03:52:32;;;;;;;;;;;;;;;24.26;64.55;101286.83;102645;1287;604902;-53
2023/08/16 03:54:59;;;;;;;14.10;12.70;;;;;;;24.79;63.24;101285.63;105000;1270;109034;-54
2023/08/16 03:57:26;;;;;;;15.70;13.50;;;;;;;24.78;63.15;101288.10;105195;1267;59295;-50
2023/08/16 03:59:53;;;;;;;15.90;14.30;;;;;;;24.76;63.12;101295.21;104527;1272;63492;-52
2023/08/16 04:02:21;;;;;;;16.50;14.70;;;;;;;24.77;62.98;101294.91;104542;1272;61486;-51
2023/08/16 04:04:53;;;;;;;15.80;14.20;;;;;;;24.79;62.74;101295.29;104388;1269;63944;-47
2023/08/16 04:07:19;;;;;;;15.80;14.30;;;;;;;24.80;62.67;101293.01;105286;1260;59866;-51
2023/08/16 04:09:46;;;;;;;16.80;15.00;;;;;;;24.79;62.74;101295.11;105176;1259;59286;-56
2023/08/16 04:12:14;;;;;;;17.50;14.60;;;;;;;24.77;62.95;101296.24;105273;1260;63445;-53
2023/08/16 04:14:41;;;;;;;17.20;13.80;;;;;;;24.79;63.22;101300.57;105237;1260;61501;-50
2023/08/16 04:17:08;;;;;;;16.30;14.50;;;;;;;24.84;63.12;101299.88;105490;1259;63848;-51
2023/08/16 04:19:34;;;;;;;16.00;14.10;;;;;;;24.90;63.06;101301.46;105042;1257;59683;-52
2023/08/16 04:22:01;;;;;;;15.60;13.80;;;;;;;24.95;63.03;101305.84;105046;1259;59602;-50
2023/08/16 04:24:28;;;;;;;16.20;14.50;;;;;;;25.02;63.11;101308.73;105191;1264;64449;-51
2023/08/16 04:26:55;;;;;;;17.20;14.80;;;;;;;25.06;63.09;101307.49;105231;1257;61815;-50
2023/08/16 04:29:22;;;;;;;16.00;13.80;;;;;;;25.10;63.15;101308.43;105274;1259;65817;-53
2023/08/16 04:31:49;;;;;;;16.70;15.20;;;;;;;25.14;63.14;101307.05;105204;1255;59617;-49
2023/08/16 04:34:16;;;;;;;17.00;14.30;;;;;;;25.20;63.06;101306.73;105257;1258;59647;-51
2023/08/16 04:36:43;;;;;;;16.40;14.50;;;;;;;25.30;63.03;101309.13;105087;1269;64212;-49
2023/08/16 04:39:12;;;;;;;16.30;13.90;;;;;;;25.38;62.94;101311.30;105444;1260;61507;-52
2023/08/16 04:41:39;;;;;;;20.30;15.80;;;;;;;25.47;62.80;101315.27;105359;1260;63733;-52
2023/08/16 04:44:05;;;;;;;17.40;14.40;;;;;;;25.55;62.55;101316.02;105081;1258;59711;-55
2023/08/16 04:46:32;;;;;;;15.50;13.90;;;;;;;25.62;62.43;101314.04;105124;1257;59804;-55
2023/08/16 04:48:59;;;;;;;16.10;14.40;;;;;;;25.67;62.16;101314.23;105039;1260;64848;-58
2023/08/16 04:51:26;;;;;;;15.20;13.70;;;;;;;25.73;61.81;101318.55;105159;1260;63308;-50
2023/08/16 04:53:53;;;;;;;15.90;14.20;;;;;;;25.81;61.49;101317.81;105137;1262;63801;-49
2023/08/16 04:56:20;;;;;;;17.80;14.10;;;;;;;25.87;61.30;101320.94;105308;1260;59750;-52
2023/08/16 04:58:47;;;;;;;17.80;15.20;;;;;;;25.87;61.20;101319.66;105147;1257;59672;-50
2023/08/16 05:01:15;;;;;;;16.00;14.30;;;;;;;25.91;60.90;101324.52;105149;1259;65265;-51
2023/08/16 05:03:49;;;;;;;19.10;15.80;;;;;;;25.93;60.60;101320.15;105613;1258;62358;-59
2023/08/16 05:06:19;;;;;;;;;;;;;;;25.96;60.27;101319.13;106302;1257;64453;-55
2023/08/16 05:08:48;;;;;;;15.20;13.70;;;;;;;26.00;60.15;101318.11;104962;1256;59708;-53
2023/08/16 05:11:15;;;;;;;13.80;12.30;;;;;;;26.09;60.07;101318.80;104930;1260;59584;-53
2023/08/16 05:13:41;;;;;;;16.30;14.50;;;;;;;26.19;59.67;101316.81;105033;1257;64652;-54
2023/08/16 05:16:08;;;;;;;16.90;14.60;;;;;;;26.27;59.45;101316.49;104814;1260;63578;-57
2023/08/16 05:18:35;;;;;;;15.90;14.30;;;;;;;26.34;59.34;101319.38;105218;1260;64001;-57
2023/08/16 05:21:04;;;;;;;16.80;14.00;;;;;;;26.38;59.14;101324.40;105269;1260;59666;-57
2023/08/16 05:23:30;;;;;;;15.40;13.70;;;;;;;26.41;59.03;101324.69;105275;1257;59555;-54
2023/08/16 05:25:57;;;;;;;16.10;13.80;;;;;;;26.49;59.09;101324.34;105149;1260;64338;-57
2023/08/16 05:28:24;;;;;;;14.30;12.90;;;;;;;26.56;59.24;101325.04;104995;1262;61779;-56
2023/08/16 05:30:50;;;;;;;14.80;13.40;;;;;;;26.61;59.12;101330.45;105254;1260;63819;-57
2023/08/16 05:33:17;;;;;;;18.30;13.90;;;;;;;26.63;58.73;101326.31;105111;1261;59529;-57
2023/08/16 05:35:44;;;;;;;15.50;14.00;;;;;;;26.62;58.80;101327.63;105261;1259;59263;-56
2023/08/16 05:38:12;;;;;;;16.00;14.40;;;;;;;26.62;59.02;101329.30;106147;1259;64255;-57
2023/08/16 05:40:38;;;;;;;14.70;12.80;;;;;;;26.60;58.92;101330.05;105676;1257;61412;-57
2023/08/16 05:43:05;;;;;;;16.70;12.90;;;;;;;26.63;58.98;101328.64;106668;1257;64063;-56
2023/08/16 05:45:32;;;;;;;14.80;11.80;;;;;;;26.72;59.03;101325.13;105054;1260;59637;-56
2023/08/16 05:47:58;;;;;;;14.20;12.30;;;;;;;26.83;58.94;101323.02;105210;1260;60691;-56
2023/08/16 05:50:25;;;;;;;16.10;14.40;;;;;;;26.92;58.58;101326.88;105227;1259;64416;-57
2023/08/16 05:52:53;;;;;;;16.20;12.90;;;;;;;26.98;58.78;101323.42;105419;1257;61436;-58
2023/08/16 05:55:20;;;;;;;14.70;13.30;;;;;;;27.02;58.68;101321.66;105575;1257;64698;-58
2023/08/16 05:57:47;;;;;;;14.80;13.00;;;;;;;27.08;58.65;101323.62;105228;1258;59742;-57
2023/08/16 06:00:14;;;;;;;14.40;13.00;;;;;;;27.17;58.70;101323.69;105345;1255;59829;-57
2023/08/16 06:02:41;;;;;;;13.90;12.50;;;;;;;27.28;58.48;101322.58;105515;1256;63132;-57
2023/08/16 06:05:09;;;;;;;13.60;12.20;;;;;;;27.38;58.35;101327.17;107591;1257;61688;-58
2023/08/16 06:07:36;;;;;;;13.20;11.80;;;;;;;27.43;58.16;101328.56;105404;1270;62534;-56
2023/08/16 06:10:04;;;;;;;15.10;13.60;;;;;;;27.42;57.78;101329.04;105342;1257;59636;-56
2023/08/16 06:12:31;;;;;;;15.70;14.00;;;;;;;27.39;57.83;101329.09;105322;1258;59806;-58
2023/08/16 06:14:58;;;;;;;13.70;12.30;;;;;;;27.37;57.77;101328.88;105359;1259;64890;-55
2023/08/16 06:17:25;;;;;;;14.60;12.60;;;;;;;27.36;57.50;101330.95;105282;1260;61522;-57
2023/08/16 06:19:52;;;;;;;12.90;11.60;;;;;;;27.35;57.32;101333.27;105175;1257;63954;-57
2023/08/16 06:22:19;;;;;;;15.50;13.50;;;;;;;27.36;57.46;101329.05;105313;1260;59697;-57
2023/08/16 06:24:46;;;;;;;14.90;12.30;;;;;;;27.39;57.50;101324.84;105123;1255;59785;-57
2023/08/16 06:27:12;;;;;;;14.20;12.80;;;;;;;27.44;57.50;101324.00;105368;1260;64972;-57
2023/08/16 06:29:40;;;;;;;15.00;13.30;;;;;;;27.48;57.43;101324.48;105356;1257;61485;-56
2023/08/16 06:32:07;;;;;;;13.80;12.20;;;;;;;27.52;57.21;101323.94;105240;1260;64255;-56
2023/08/16 06:34:34;;;;;;;14.00;12.40;;;;;;;27.56;57.06;101321.02;105444;1256;59720;-57
2023/08/16 06:37:04;;;;;;;14.40;12.90;;;;;;;27.61;57.09;101322.83;105559;1258;59679;-56
2023/08/16 06:39:31;;;;;;;15.10;13.50;;;;;;;27.66;56.89;101320.69;105333;1259;64104;-55
2023/08/16 06:41:57;;;;;;;14.80;13.30;;;;;;;27.71;56.82;101321.00;105391;1259;61450;-55
2023/08/16 06:44:26;;;;;;;15.90;13.20;;;;;;;27.74;56.90;101322.52;105216;1260;63816;-57
2023/08/16 06:46:52;;;;;;;14.50;11.70;;;;;;;27.75;56.79;101320.23;105411;1257;59771;-58
2023/08/16 06:49:19;;;;;;;12.20;10.90;;;;;;;27.77;56.70;101320.23;105275;1260;59669;-57
2023/08/16 06:51:46;;;;;;;13.90;12.00;;;;;;;27.83;56.79;101322.49;105353;1260;64499;-56
2023/08/16 06:54:12;;;;;;;12.80;11.50;;;;;;;27.91;56.81;101320.01;105163;1260;61352;-56
2023/08/16 06:56:40;;;;;;;13.70;12.10;;;;;;;27.96;56.62;101319.30;105271;1260;63867;-57
2023/08/16 06:59:07;;;;;;;13.30;11.80;;;;;;;27.99;56.47;101319.04;105231;1258;59564;-57
2023/08/16 07:01:34;;;;;;;13.10;11.70;;;;;;;28.02;56.34;101316.65;105277;1258;59798;-58
2023/08/16 07:04:02;;;;;;;14.00;12.60;;;;;;;28.07;56.55;101312.71;105335;1259;64109;-56
2023/08/16 07:06:31;;;;;;;14.80;12.00;;;;;;;28.12;56.79;101314.47;105317;1260;60477;-57
2023/08/16 07:09:32;;;;;;;14.00;11.60;;;;;;;28.20;56.73;101311.30;105256;1257;63917;-58
2023/08/16 07:12:00;;;;;;;12.50;11.30;;;;;;;28.29;56.51;101308.49;104962;1257;59830;-55
2023/08/16 07:14:29;;;;;;;12.40;11.20;;;;;;;28.39;56.47;101309.27;104435;1258;61995;-56
2023/08/16 07:16:56;;;;;;;14.00;11.90;;;;;;;28.48;56.49;101309.08;105471;1258;64198;-59
2023/08/16 07:19:25;;;;;;;13.60;12.30;;;;;;;28.56;56.26;101311.91;105640;1257;61471;-60
2023/08/16 07:21:53;;;;;;;14.00;12.40;;;;;;;28.64;56.14;101309.36;105450;1261;62835;-56
2023/08/16 07:24:19;;;;;;;14.20;12.30;;;;;;;28.69;55.97;101307.94;105398;1257;59641;-56
2023/08/16 07:26:46;;;;;;;17.10;13.00;;;;;;;28.71;55.76;101307.00;105475;1258;59622;-56
2023/08/16 07:29:13;;;;;;;14.30;12.80;;;;;;;28.74;55.90;101304.70;105314;1259;64219;-54
2023/08/16 07:31:40;;;;;;;13.80;11.50;;;;;;;28.79;55.69;101302.33;105351;1257;61867;-56
2023/08/16 07:41:08;;;;;;;;;;;;;;;29.04;55.40;101302.13;105304;1254;59930;-65
2023/08/16 07:43:35;;;;;;;13.00;11.60;;;;;;;29.10;55.35;101298.23;105302;1259;64559;-60
2023/08/16 07:46:01;;;;;;;13.70;12.30;;;;;;;29.14;55.46;101298.70;105138;1258;61862;-62
2023/08/16 07:48:29;;;;;;;12.60;11.30;;;;;;;29.19;55.62;101297.17;108941;1256;63879;-62
2023/08/16 07:50:56;;;;;;;14.50;12.00;;;;;;;29.27;55.16;101298.52;105486;1257;59750;-60
2023/08/16 07:53:22;;;;;;;13.90;11.90;;;;;;;29.36;54.79;101294.06;105423;1257;60043;-65
2023/08/16 07:55:50;;;;;;;13.50;12.10;;;;;;;29.40;54.43;101291.64;105638;1256;64716;-65
2023/08/16 07:58:16;;;;;;;12.80;11.50;;;;;;;29.38;54.06;101290.13;105321;1257;61591;-63
2023/08/16 08:00:46;;;;;;;12.10;10.90;;;;;;;29.42;54.10;101286.53;105376;1258;63832;-61
2023/08/16 08:03:17;;;;;;;13.90;11.60;;;;;;;29.47;54.04;101284.35;106569;1259;60410;-67
2023/08/16 08:05:44;;;;;;;12.80;11.50;;;;;;;29.51;54.07;101284.09;105697;1259;60511;-65
2023/08/16 08:08:11;;;;;;;12.90;11.60;;;;;;;29.56;53.97;101286.58;105377;1258;64917;-62
2023/08/16 08:10:42;;;;;;;13.50;10.00;;;;;;;29.62;53.47;101285.27;105314;1260;61488;-64
2023/08/16 08:13:09;;;;;;;12.90;11.40;;;;;;;29.70;52.81;101281.91;105363;1260;64627;-69
2023/08/16 08:15:36;;;;;;;11.50;10.40;;;;;;;29.75;52.30;101280.70;105311;1258;60506;-61
2023/08/16 08:18:03;;;;;;;10.00;9.00;;;;;;;29.77;52.36;101280.49;105215;1256;60374;-63
2023/08/16 08:20:30;;;;;;;10.60;9.60;;;;;;;29.77;52.11;101278.33;105559;1259;65230;-61
2023/08/16 08:22:56;;;;;;;11.00;8.80;;;;;;;29.79;51.59;101278.47;105470;1258;61768;-63
2023/08/16 08:25:24;;;;;;;11.50;9.10;;;;;;;29.84;51.28;101277.02;105252;1254;60575;-62
2023/08/16 08:27:51;;;;;;;11.20;8.40;;;;;;;29.92;51.04;101273.54;105193;1257;60476;-64
2023/08/16 08:30:19;;;;;;;11.00;8.60;;;;;;;30.00;50.87;101269.63;105350;1257;60476;-63
2023/08/16 08:32:45;;;;;;;12.70;8.40;;;;;;;30.04;50.86;101268.73;105344;1261;65050;-63
2023/08/16 08:35:12;;;;;;;12.00;8.50;;;;;;;30.06;50.42;101269.67;106762;1257;61788;-59
2023/08/16 08:37:39;;;;;;;9.80;8.30;;;;;;;30.09;50.17;101270.23;105353;1259;63919;-60
2023/08/16 08:40:07;;;;;;;8.30;7.40;;;;;;;30.13;50.23;101269.26;105276;1260;60558;-59
2023/08/16 08:42:34;;;;;;;9.00;7.60;;;;;;;30.17;49.82;101268.78;105440;1260;60624;-61
2023/08/16 08:45:01;;;;;;;10.20;7.90;;;;;;;30.21;49.57;101266.05;105161;1260;65828;-58
2023/08/16 08:48:14;;;;;;;11.90;8.60;;;;;;;30.27;49.24;101268.19;105406;1255;63268;-60
2023/08/16 08:51:57;;;;;;;8.80;7.50;;;;;;;30.33;49.26;101263.95;105217;1262;64025;-59
2023/08/16 08:54:28;;;;;;;11.20;8.60;;;;;;;30.41;49.25;101259.13;104929;1257;60450;-59
2023/08/16 08:57:53;;;;;;;9.60;8.60;;;;;;;30.47;48.56;101260.08;105063;1256;62270;-59
2023/08/16 09:00:24;;;;;;;9.70;8.30;;;;;;;30.51;48.24;101260.63;105198;1260;65093;-59
2023/08/16 09:07:04;;;;;;;8.80;7.90;;;;;;;30.63;48.00;101262.64;104923;1263;64064;-65
2023/08/16 09:09:32;;;;;;;12.10;9.70;;;;;;;30.70;47.47;101260.15;104813;1257;60583;-62
2023/08/16 09:12:06;;;;;;;10.90;8.90;;;;;;;30.74;47.13;101261.98;104399;1257;60758;-54
2023/08/16 09:14:58;;;;;;;14.60;10.50;;;;;;;30.80;46.69;101259.17;105193;1257;64295;-55
2023/08/16 09:18:04;;;;;;;8.70;7.70;;;;;;;30.84;47.01;101261.02;105288;1257;61519;-61
2023/08/16 09:20:31;;;;;;;12.90;8.30;;;;;;;30.92;47.22;101264.14;104612;1264;63930;-60
2023/08/16 09:23:07;;;;;;;9.20;7.50;;;;;;;31.00;47.19;101261.81;104657;1268;60523;-63
2023/08/16 09:25:34;;;;;;;12.10;7.80;;;;;;;31.05;47.06;101262.55;104776;1260;60643;-61
2023/08/16 09:28:29;;;;;;;10.20;7.80;;;;;;;31.12;46.82;101259.75;104515;1260;65029;-66
2023/08/16 09:31:20;;;;;;;8.70;7.40;;;;;;;31.17;46.03;101259.36;104198;1261;61764;-60
2023/08/16 09:33:58;;;;;;;8.40;7.50;;;;;;;31.23;46.15;101258.56;104156;1271;65509;-61
2023/08/16 09:36:38;;;;;;;7.30;6.40;;;;;;;31.30;45.76;101253.83;105327;1262;60456;-56
2023/08/16 09:40:09;;;;;;;10.00;6.70;;;;;;;31.39;45.59;101250.58;104797;1266;60501;-56
2023/08/16 09:42:39;;;;;;;7.20;6.50;;;;;;;31.50;44.65;101248.70;104182;1273;65467;-54
2023/08/16 09:45:06;;;;;;;7.40;6.40;;;;;;;31.58;44.51;101249.20;104451;1267;61500;-50
2023/08/16 09:48:14;;;;;;;9.00;6.30;;;;;;;31.63;44.22;101251.27;104733;1262;64256;-54
2023/08/16 09:50:44;;;;;;;7.70;5.70;;;;;;;31.65;43.80;101249.27;104895;1259;60808;-53
2023/08/16 09:53:27;;;;;;;6.70;6.00;;;;;;;31.67;43.96;101247.55;104626;1260;60517;-54
2023/08/16 09:56:09;;;;;;;7.70;6.50;;;;;;;31.70;43.89;101246.14;104861;1256;65725;-54
2023/08/16 09:58:39;;;;;;;9.10;6.50;;;;;;;31.69;43.99;101247.05;104918;1257;61493;-53
2023/08/16 10:01:37;;;;;;;8.10;6.10;;;;;;;31.72;43.75;101246.02;104832;1258;60462;-53
2023/08/16 10:04:22;;;;;;;;;;;;;;;31.75;42.23;101244.08;104917;1256;60387;-51
2023/08/16 10:07:09;;;;;;;6.80;5.40;;;;;;;31.78;42.57;101246.73;105146;1254;60579;-53
2023/08/16 10:09:40;;;;;;;7.10;5.90;;;;;;;31.78;42.74;101240.54;105192;1256;65221;-55
2023/08/16 10:12:07;;;;;;;7.90;5.80;;;;;;;31.83;43.50;101240.84;105398;1259;60433;-54
2023/08/16 10:14:34;;;;;;;7.50;5.90;;;;;;;31.96;43.30;101238.36;105144;1260;62562;-51
2023/08/16 10:17:01;;;;;;;10.10;5.90;;;;;;;32.05;42.67;101238.09;105348;1257;60730;-54
2023/08/16 10:19:37;;;;;;;8.30;5.90;;;;;;;32.13;42.73;101238.68;105326;1257;60425;-52
2023/08/16 10:22:59;;;;;;;6.50;5.60;;;;;;;32.22;42.16;101235.55;105362;1257;64919;-53
2023/08/16 10:26:32;;;;;;;7.50;5.70;;;;;;;32.30;42.14;101235.73;105352;1258;62906;-53
2023/08/16 10:32:42;;;;;;;8.50;5.40;;;;;;;32.44;42.04;101225.41;105318;1260;60473;-53
2023/08/16 10:35:33;;;;;;;8.00;5.90;;;;;;;32.52;41.80;101222.74;105251;1259;60604;-53
2023/08/16 10:38:01;;;;;;;7.70;6.10;;;;;;;32.52;40.60;101222.36;105371;1258;64925;-54
2023/08/16 10:40:28;;;;;;;7.30;5.40;;;;;;;32.46;40.08;101223.09;105237;1257;61525;-53
2023/08/16 10:43:00;;;;;;;7.10;5.90;;;;;;;32.42;40.16;101221.23;105219;1259;63978;-51
2023/08/16 10:45:28;;;;;;;7.20;6.40;;;;;;;32.42;39.72;101217.15;105399;1259;60515;-53
2023/08/16 10:48:18;;;;;;;8.00;5.90;;;;;;;32.44;39.59;101212.64;105261;1257;60374;-53
2023/08/16 10:50:57;;;;;;;7.00;6.10;;;;;;;32.49;39.69;101212.56;105178;1256;65066;-53
2023/08/16 10:53:27;;;;;;;10.50;6.10;;;;;;;32.57;40.51;101208.48;105219;1257;63941;-54
2023/08/16 10:55:55;;;;;;;6.40;5.50;;;;;;;32.62;39.71;101210.61;105391;1259;64024;-54
2023/08/16 10:58:23;;;;;;;7.40;6.10;;;;;;;32.62;39.67;101207.67;105266;1257;60463;-54
2023/08/16 11:00:56;;;;;;;8.00;6.20;;;;;;;32.63;39.43;101201.02;105601;1257;60443;-54
2023/08/16 11:03:32;;;;;;;9.30;6.30;;;;;;;32.65;38.81;101202.90;105122;1260;63921;-53
2023/08/16 11:06:12;;;;;;;6.70;5.60;;;;;;;32.67;38.36;101198.30;105352;1257;61642;-53
2023/08/16 11:08:43;;;;;;;8.40;5.90;;;;;;;32.70;38.32;101195.52;105511;1258;63806;-54
2023/08/16 11:11:11;;;;;;;8.60;6.00;;;;;;;32.74;38.36;101193.30;105286;1259;60613;-54
2023/08/16 11:13:41;;;;;;;8.00;5.90;;;;;;;32.80;39.05;101188.78;105198;1256;60689;-56
2023/08/16 11:16:09;;;;;;;6.40;5.60;;;;;;;32.91;39.43;101187.34;105296;1259;65622;-57
2023/08/16 11:18:39;;;;;;;8.00;5.50;;;;;;;33.01;39.38;101183.38;105395;1257;61665;-55
2023/08/16 11:21:07;;;;;;;6.50;5.10;;;;;;;33.04;39.21;101177.09;105119;1259;64050;-55
2023/08/16 11:23:39;;;;;;;6.40;5.30;;;;;;;33.07;39.27;101179.05;106433;1257;60551;-54
2023/08/16 11:26:07;;;;;;;7.90;5.70;;;;;;;33.15;39.60;101176.10;105660;1256;60565;-55
2023/08/16 11:28:35;;;;;;;8.30;5.80;;;;;;;33.25;39.99;101177.09;104990;1257;65171;-55
2023/08/16 11:31:02;;;;;;;8.80;5.70;;;;;;;33.33;39.98;101175.16;105356;1257;62006;-54
2023/08/16 11:33:33;;;;;;;8.00;6.00;;;;;;;33.41;39.56;101168.31;105635;1255;64563;-54
2023/08/16 11:36:51;;;;;;;11.30;6.20;;;;;;;33.51;38.70;101159.91;105909;1257;60516;-55
2023/08/16 11:39:18;;;;;;;9.10;5.70;;;;;;;33.54;38.58;101154.93;105374;1256;60571;-56
2023/08/16 11:43:59;;;;;;;6.70;5.50;;;;;;;33.40;39.36;101155.09;104165;1292;601164;-89
2023/08/16 11:48:38;;;;;;;7.50;5.10;;;;;;;33.48;39.26;101144.23;105140;1284;608769;-89
2023/08/16 11:51:31;;;;;;;7.50;5.00;;;;;;;33.76;38.94;101144.08;107829;1269;57235;-53
2023/08/16 11:53:58;;;;;;;7.40;4.90;;;;;;;33.84;38.59;101139.69;108142;1269;57326;-54
2023/08/16 11:56:28;;;;;;;8.90;4.70;;;;;;;33.89;38.69;101139.59;105416;1269;62098;-55